createdAt,value
2023-03-06T00:00:50.727Z,76.36
2023-03-06T00:03:53.416Z,75.88
2023-03-06T00:06:59.878Z,75.97
2023-03-06T00:10:03.801Z,76.79
2023-03-06T00:13:15.077Z,77.14
2023-03-06T00:16:18.439Z,76.34
2023-03-06T00:19:23.943Z,74.94
2023-03-06T00:22:31.427Z,76.07
2023-03-06T00:25:38.088Z,75.01
2023-03-06T00:28:43.005Z,73.86
2023-03-06T00:31:50.698Z,74.42
2023-03-06T00:34:55.775Z,75.31
2023-03-06T00:38:00.709Z,74.08
2023-03-06T00:41:12.112Z,74.34
2023-03-06T00:44:21.042Z,75.78
2023-03-06T00:47:24.942Z,73.97
2023-03-06T00:50:28.349Z,74.21
2023-03-06T00:53:31.672Z,74.50
2023-03-06T00:56:36.178Z,75.03
2023-03-06T00:59:42.143Z,75.14
2023-03-06T01:02:45.299Z,73.71
2023-03-06T01:05:50.461Z,74.61
2023-03-06T01:08:57.548Z,74.37
2023-03-06T01:12:07.308Z,72.87
2023-03-06T01:15:11.136Z,72.65
2023-03-06T01:18:15.225Z,72.54
2023-03-06T01:21:21.801Z,71.92
2023-03-06T01:24:26.954Z,73.55
2023-03-06T01:27:37.117Z,73.81
2023-03-06T01:30:41.215Z,74.95
2023-03-06T01:33:43.779Z,74.86
2023-03-06T01:36:47.975Z,74.91
2023-03-06T01:39:52.549Z,73.69
2023-03-06T01:43:05.829Z,73.42
2023-03-06T01:46:17.068Z,74.18
2023-03-06T01:49:33.585Z,73.28
2023-03-06T01:52:42.816Z,72.72
2023-03-06T01:55:46.520Z,72.62
2023-03-06T01:58:50.334Z,73.31
2023-03-06T02:01:56.048Z,73.46
2023-03-06T02:05:12.316Z,74.07
2023-03-06T02:08:17.738Z,75.22
2023-03-06T02:11:29.077Z,74.24
2023-03-06T02:14:31.854Z,72.64
2023-03-06T02:17:39.823Z,74.36
2023-03-06T02:20:56.743Z,73.46
2023-03-06T02:24:13.230Z,72.54
2023-03-06T02:27:20.652Z,72.20
2023-03-06T02:30:26.304Z,72.10
2023-03-06T02:33:32.994Z,72.62
2023-03-06T02:36:40.180Z,71.22
2023-03-06T02:39:45.658Z,71.34
2023-03-06T02:43:02.041Z,70.58
2023-03-06T02:46:06.190Z,70.55
2023-03-06T02:49:10.370Z,71.29
2023-03-06T02:52:18.461Z,71.93
2023-03-06T02:55:22.989Z,70.48
2023-03-06T02:58:27.330Z,71.36
2023-03-06T03:01:31.140Z,71.10
2023-03-06T03:04:40.266Z,70.90
2023-03-06T03:07:46.128Z,70.50
2023-03-06T03:10:50.025Z,70.45
2023-03-06T03:13:54.348Z,70.16
2023-03-06T03:16:57.043Z,70.73
2023-03-06T03:20:00.163Z,70.85
2023-03-06T03:23:04.962Z,71.37
2023-03-06T03:26:12.261Z,70.77
2023-03-06T03:29:17.402Z,71.97
2023-03-06T03:32:25.032Z,70.04
2023-03-06T03:35:30.462Z,70.79
2023-03-06T03:38:36.516Z,70.46
2023-03-06T03:41:43.748Z,70.54
2023-03-06T03:44:48.751Z,70.04
2023-03-06T03:47:51.352Z,71.80
2023-03-06T03:50:55.226Z,70.76
2023-03-06T03:53:59.676Z,71.54
2023-03-06T03:57:04.936Z,72.17
2023-03-06T04:00:18.869Z,70.01
2023-03-06T04:03:22.990Z,71.82
2023-03-06T04:06:29.456Z,69.88
2023-03-06T04:09:33.968Z,72.78
2023-03-06T04:12:39.311Z,71.08
2023-03-06T04:15:43.949Z,72.31
2023-03-06T04:18:50.640Z,70.94
2023-03-06T04:22:02.802Z,73.04
2023-03-06T04:25:08.891Z,73.40
2023-03-06T04:28:13.008Z,71.94
2023-03-06T04:31:17.226Z,71.70
2023-03-06T04:34:23.206Z,71.56
2023-03-06T04:37:26.507Z,71.35
2023-03-06T04:40:32.347Z,72.55
2023-03-06T04:43:38.433Z,72.69
2023-03-06T04:46:46.931Z,74.18
2023-03-06T04:49:50.849Z,74.29
2023-03-06T04:52:56.501Z,74.91
2023-03-06T04:56:01.827Z,74.39
2023-03-06T04:59:07.974Z,77.52
2023-03-06T05:02:15.563Z,77.91
2023-03-06T05:05:24.023Z,78.71
2023-03-06T05:08:27.633Z,77.51
2023-03-06T05:11:31.234Z,78.36
2023-03-06T05:14:34.740Z,77.40
2023-03-06T05:17:42.959Z,79.35
2023-03-06T05:20:47.070Z,78.93
2023-03-06T05:23:50.757Z,77.95
2023-03-06T05:26:53.677Z,77.91
2023-03-06T05:29:57.883Z,79.65
2023-03-06T05:33:02.851Z,78.78
2023-03-06T05:36:07.674Z,78.01
2023-03-06T05:39:12.204Z,78.33
2023-03-06T05:42:16.840Z,79.01
2023-03-06T05:45:20.126Z,79.30
2023-03-06T05:48:25.268Z,80.01
2023-03-06T05:51:29.903Z,79.36
2023-03-06T05:54:37.273Z,79.33
2023-03-06T05:57:40.681Z,81.31
2023-03-06T06:00:44.389Z,80.57
2023-03-06T06:03:48.082Z,81.28
2023-03-06T06:07:00.313Z,80.33
2023-03-06T06:10:06.486Z,82.62
2023-03-06T06:13:12.940Z,82.12
2023-03-06T06:16:23.110Z,80.74
2023-03-06T06:19:29.401Z,80.67
2023-03-06T06:22:34.107Z,79.57
2023-03-06T06:25:41.395Z,81.65
2023-03-06T06:28:44.907Z,81.08
2023-03-06T06:31:50.035Z,79.57
2023-03-06T06:34:54.689Z,79.54
2023-03-06T06:38:04.733Z,78.56
2023-03-06T06:44:35.180Z,76.79
2023-03-06T06:47:44.098Z,76.65
2023-03-06T06:50:47.905Z,79.25
2023-03-06T06:53:59.401Z,79.30
2023-03-06T06:57:04.146Z,75.67
2023-03-06T07:00:09.289Z,75.29
2023-03-06T07:03:21.906Z,76.94
2023-03-06T07:06:25.742Z,75.47
2023-03-06T07:09:32.912Z,77.77
2023-03-06T07:12:39.782Z,78.50
2023-03-06T07:15:43.748Z,75.60
2023-03-06T07:18:48.637Z,74.62
2023-03-06T07:21:56.029Z,75.46
2023-03-06T07:25:00.748Z,76.69
2023-03-06T07:28:11.629Z,75.54
2023-03-06T07:31:20.308Z,74.38
2023-03-06T07:34:28.523Z,76.74
2023-03-06T07:37:32.599Z,78.39
2023-03-06T07:40:36.914Z,79.67
2023-03-06T07:43:51.008Z,79.79
2023-03-06T07:46:55.153Z,79.81
2023-03-06T07:50:03.194Z,79.76
2023-03-06T07:53:06.584Z,81.21
2023-03-06T07:56:12.661Z,78.60
2023-03-06T07:59:16.519Z,78.78
2023-03-06T08:02:23.028Z,80.55
2023-03-06T08:05:25.733Z,80.51
2023-03-06T08:08:28.950Z,80.33
2023-03-06T08:11:34.500Z,80.13
2023-03-06T08:14:37.217Z,82.13
2023-03-06T08:17:40.173Z,81.84
2023-03-06T08:20:43.549Z,84.68
2023-03-06T08:23:48.044Z,86.14
2023-03-06T08:26:51.783Z,83.36
2023-03-06T08:29:55.081Z,86.50
2023-03-06T08:32:57.778Z,82.12
2023-03-06T08:36:03.755Z,79.93
2023-03-06T08:39:06.436Z,79.23
2023-03-06T08:42:11.069Z,79.87
2023-03-06T08:45:14.313Z,76.87
2023-03-06T08:48:17.320Z,76.77
2023-03-06T08:51:25.102Z,77.00
2023-03-06T08:54:28.544Z,80.07
2023-03-06T08:57:31.889Z,76.84
2023-03-06T09:00:35.996Z,77.16
2023-03-06T09:03:45.438Z,73.21
2023-03-06T09:06:48.369Z,74.16
2023-03-06T09:09:51.370Z,74.33
2023-03-06T09:12:57.440Z,73.74
2023-03-06T09:16:02.173Z,71.69
2023-03-06T09:19:06.795Z,70.01
2023-03-06T09:22:13.069Z,70.28
2023-03-06T09:25:20.462Z,72.21
2023-03-06T09:28:23.374Z,69.61
2023-03-06T09:31:28.296Z,68.62
2023-03-06T09:34:31.089Z,70.43
2023-03-06T09:37:34.184Z,67.82
2023-03-06T09:40:49.142Z,67.91
2023-03-06T09:43:54.724Z,67.73
2023-03-06T09:47:15.909Z,67.59
2023-03-06T09:50:32.581Z,68.26
2023-03-06T09:54:04.386Z,65.90
2023-03-06T09:57:14.428Z,68.09
2023-03-06T10:00:20.818Z,66.61
2023-03-06T10:03:42.347Z,65.37
2023-03-06T10:06:52.613Z,64.31
2023-03-06T10:10:00.976Z,65.37
2023-03-06T10:13:07.505Z,62.21
2023-03-06T10:16:13.259Z,62.08
2023-03-06T10:19:18.803Z,62.81
2023-03-06T10:22:24.456Z,62.97
2023-03-06T10:25:31.996Z,65.23
2023-03-06T10:28:42.324Z,65.91
2023-03-06T10:31:49.679Z,65.54
2023-03-06T10:34:55.125Z,66.35
2023-03-06T10:38:24.475Z,68.21
2023-03-06T10:41:32.915Z,68.40
2023-03-06T10:44:35.368Z,66.74
2023-03-06T10:47:39.344Z,68.13
2023-03-06T10:50:43.466Z,69.41
2023-03-06T10:53:52.712Z,69.04
2023-03-06T10:56:58.005Z,69.27
2023-03-06T11:00:06.921Z,69.26
2023-03-06T11:03:24.053Z,66.42
2023-03-06T11:06:37.394Z,66.39
2023-03-06T11:09:40.477Z,67.71
2023-03-06T11:12:45.604Z,65.36
2023-03-06T11:16:05.653Z,66.21
2023-03-06T11:19:20.150Z,64.34
2023-03-06T11:22:24.884Z,65.73
2023-03-06T11:25:31.460Z,62.52
2023-03-06T11:28:55.383Z,62.81
2023-03-06T11:31:59.044Z,65.45
2023-03-06T11:35:16.482Z,62.73
2023-03-06T11:38:46.104Z,63.27
2023-03-06T11:42:10.926Z,63.06
2023-03-06T11:45:26.388Z,65.32
2023-03-06T11:48:35.339Z,62.10
2023-03-06T11:51:43.035Z,61.03
2023-03-06T11:54:48.766Z,61.77
2023-03-06T11:58:16.627Z,61.67
2023-03-06T12:01:42.521Z,63.17
2023-03-06T12:04:48.818Z,64.67
2023-03-06T12:08:06.989Z,64.24
2023-03-06T12:11:22.784Z,65.10
2023-03-06T12:14:40.925Z,64.26
2023-03-06T12:17:47.607Z,63.90
2023-03-06T12:20:56.635Z,63.99
2023-03-06T12:24:01.386Z,63.48
2023-03-06T12:27:10.100Z,63.17
2023-03-06T12:30:25.808Z,63.19
2023-03-06T12:33:34.073Z,63.94
2023-03-06T12:36:48.771Z,63.67
2023-03-06T12:39:51.466Z,65.00
2023-03-06T12:42:56.702Z,64.11
2023-03-06T12:46:08.009Z,65.55
2023-03-06T12:49:31.164Z,65.72
2023-03-06T12:52:36.107Z,66.04
2023-03-06T12:55:44.821Z,66.73
2023-03-06T12:58:54.797Z,66.56
2023-03-06T13:01:58.163Z,67.35
2023-03-06T13:05:20.511Z,69.71
2023-03-06T13:08:46.156Z,70.61
2023-03-06T13:11:51.390Z,71.06
2023-03-06T13:14:57.231Z,72.46
2023-03-06T13:18:00.737Z,73.49
2023-03-06T13:21:09.460Z,73.67
2023-03-06T13:24:22.806Z,74.68
2023-03-06T13:27:46.697Z,75.70
2023-03-06T13:30:52.998Z,76.97
2023-03-06T13:33:59.421Z,77.89
2023-03-06T13:37:20.559Z,79.70
2023-03-06T13:40:37.797Z,80.64
2023-03-06T13:43:45.359Z,80.66
2023-03-06T13:47:01.904Z,79.80
2023-03-06T13:50:23.300Z,81.39
2023-03-06T13:53:38.971Z,81.04
2023-03-06T13:57:07.073Z,79.51
2023-03-06T14:00:31.466Z,81.89
2023-03-06T14:03:54.809Z,81.61
2023-03-06T14:07:24.150Z,82.80
2023-03-06T14:10:28.012Z,82.78
2023-03-06T14:13:47.494Z,83.99
2023-03-06T14:16:51.814Z,85.85
2023-03-06T14:19:56.157Z,85.33
2023-03-06T14:23:30.198Z,84.88
2023-03-06T14:26:34.315Z,85.28
2023-03-06T14:29:37.413Z,85.04
2023-03-06T14:32:42.465Z,84.33
2023-03-06T14:35:53.241Z,84.56
2023-03-06T14:39:03.797Z,86.00
2023-03-06T14:42:09.672Z,87.03
2023-03-06T14:45:24.323Z,88.54
2023-03-06T14:48:44.076Z,88.06
2023-03-06T14:51:48.495Z,88.30
2023-03-06T14:54:51.599Z,88.00
2023-03-06T14:58:00.428Z,88.08
2023-03-06T15:01:05.403Z,88.78
2023-03-06T15:04:18.832Z,89.34
2023-03-06T15:07:28.145Z,89.00
2023-03-06T15:10:32.769Z,89.89
2023-03-06T15:13:37.238Z,89.41
2023-03-06T15:16:40.077Z,89.64
2023-03-06T15:19:43.421Z,90.06
2023-03-06T15:22:52.116Z,90.08
2023-03-06T15:26:00.434Z,90.79
2023-03-06T15:29:16.864Z,90.37
2023-03-06T15:32:26.244Z,90.33
2023-03-06T15:35:30.345Z,89.37
2023-03-06T15:38:35.932Z,91.01
2023-03-06T15:41:40.189Z,91.50
2023-03-06T15:44:43.292Z,90.83
2023-03-06T15:47:48.643Z,91.99
2023-03-06T15:50:53.017Z,92.42
2023-03-06T15:54:09.736Z,92.17
2023-03-06T15:57:19.963Z,92.50
2023-03-06T16:00:33.484Z,92.78
2023-03-06T16:03:37.088Z,92.62
2023-03-06T16:06:40.792Z,92.96
2023-03-06T16:09:46.411Z,92.58
2023-03-06T16:12:52.106Z,92.97
2023-03-06T16:15:58.934Z,92.34
2023-03-06T16:19:07.563Z,92.34
2023-03-06T16:22:15.467Z,93.10
2023-03-06T16:25:21.134Z,93.44
2023-03-06T16:28:24.060Z,93.96
2023-03-06T16:31:27.302Z,93.98
2023-03-06T16:34:29.992Z,94.46
2023-03-06T16:37:32.854Z,94.64
2023-03-06T16:40:43.086Z,95.37
2023-03-06T16:43:47.449Z,95.53
2023-03-06T16:46:52.447Z,95.50
2023-03-06T16:49:58.436Z,95.26
2023-03-06T16:53:03.991Z,95.34
2023-03-06T16:56:08.286Z,95.89
2023-03-06T16:59:15.214Z,95.47
2023-03-06T17:02:18.640Z,95.83
2023-03-06T17:05:22.899Z,95.61
2023-03-06T17:08:26.705Z,95.43
2023-03-06T17:11:30.414Z,95.23
2023-03-06T17:14:34.269Z,95.22
2023-03-06T17:17:37.278Z,95.22
2023-03-06T17:20:43.947Z,96.05
2023-03-06T17:23:47.048Z,95.38
2023-03-06T17:26:50.234Z,95.88
2023-03-06T17:29:52.835Z,96.76
2023-03-06T17:32:59.075Z,96.28
2023-03-06T17:36:02.084Z,96.38
2023-03-06T17:39:05.634Z,96.70
2023-03-06T17:42:09.379Z,97.10
2023-03-06T17:45:12.889Z,98.03
2023-03-06T17:48:15.896Z,98.26
2023-03-06T17:51:18.766Z,98.20
2023-03-06T17:54:24.316Z,98.09
2023-03-06T17:57:27.492Z,98.51
2023-03-06T18:00:31.262Z,98.90
2023-03-06T18:03:35.911Z,98.82
2023-03-06T18:06:40.072Z,98.34
2023-03-06T18:09:43.951Z,98.30
2023-03-06T18:12:51.103Z,97.68
2023-03-06T18:15:55.792Z,97.69
2023-03-06T18:18:59.064Z,98.13
2023-03-06T18:22:02.159Z,97.76
2023-03-06T18:25:04.978Z,97.51
2023-03-06T18:28:07.532Z,97.48
2023-03-06T18:31:20.270Z,96.91
2023-03-06T18:34:24.167Z,96.69
2023-03-06T18:37:26.522Z,97.59
2023-03-06T18:40:30.234Z,97.27
2023-03-06T18:43:32.525Z,97.17
2023-03-06T18:46:39.336Z,97.63
2023-03-06T18:49:44.348Z,97.99
2023-03-06T18:52:48.381Z,97.72
2023-03-06T18:55:52.811Z,97.51
2023-03-06T18:59:00.690Z,98.08
2023-03-06T19:02:07.490Z,99.19
2023-03-06T19:05:11.409Z,100.00
2023-03-06T19:08:15.733Z,100.00
2023-03-06T19:11:19.138Z,100.00
2023-03-06T19:14:22.442Z,100.00
2023-03-06T19:17:25.627Z,100.00
2023-03-06T19:20:29.134Z,100.00
2023-03-06T19:23:32.328Z,100.00
2023-03-06T19:26:36.636Z,100.00
2023-03-06T19:29:39.220Z,100.00
2023-03-06T19:32:45.409Z,100.00
2023-03-06T19:35:49.215Z,100.00
2023-03-06T19:38:55.084Z,100.00
2023-03-06T19:41:58.060Z,100.00
2023-03-06T19:45:00.534Z,100.00
2023-03-06T19:48:05.844Z,100.00
2023-03-06T19:51:08.993Z,100.00
2023-03-06T19:54:13.806Z,100.00
2023-03-06T19:57:17.936Z,100.00
2023-03-06T20:00:21.324Z,100.00
2023-03-06T20:03:25.054Z,100.00
2023-03-06T20:06:32.740Z,100.00
2023-03-06T20:09:36.650Z,100.00
2023-03-06T20:12:41.087Z,100.00
2023-03-06T20:15:44.229Z,100.00
2023-03-06T20:18:48.107Z,100.00
2023-03-06T20:21:51.883Z,100.00
2023-03-06T20:24:54.669Z,100.00
2023-03-06T20:27:57.889Z,100.00
2023-03-06T20:31:08.278Z,100.00
2023-03-06T20:34:13.064Z,100.00
2023-03-06T20:37:17.285Z,100.00
2023-03-06T20:40:21.349Z,100.00
2023-03-06T20:43:24.630Z,100.00
2023-03-06T20:46:31.711Z,100.00
2023-03-06T20:49:36.647Z,100.00
2023-03-06T20:52:39.845Z,100.00
2023-03-06T20:55:45.904Z,100.00
2023-03-06T20:58:50.209Z,100.00
2023-03-06T21:01:53.799Z,100.00
2023-03-06T21:04:56.232Z,100.00
2023-03-06T21:07:58.571Z,100.00
2023-03-06T21:11:03.303Z,100.00
2023-03-06T21:14:08.250Z,100.00
2023-03-06T21:17:13.497Z,100.00
2023-03-06T21:20:18.717Z,100.00
2023-03-06T21:23:23.260Z,100.00
2023-03-06T21:26:28.712Z,100.00
2023-03-06T21:29:33.948Z,100.00
2023-03-06T21:32:38.326Z,100.00
2023-03-06T21:35:43.825Z,100.00
2023-03-06T21:38:48.870Z,100.00
2023-03-06T21:41:52.786Z,100.00
2023-03-06T21:44:55.781Z,100.00
2023-03-06T21:47:59.477Z,100.00
2023-03-06T21:51:09.836Z,100.00
2023-03-06T21:54:14.357Z,100.00
2023-03-06T21:57:17.774Z,100.00
2023-03-06T22:00:29.362Z,100.00
2023-03-06T22:03:33.488Z,100.00
2023-03-06T22:06:40.882Z,100.00
2023-03-06T22:09:43.055Z,100.00
2023-03-06T22:12:47.471Z,100.00
2023-03-06T22:15:52.520Z,100.00
2023-03-06T22:18:58.596Z,100.00
2023-03-06T22:22:01.889Z,100.00
2023-03-06T22:25:07.349Z,100.00
2023-03-06T22:28:12.783Z,100.00
2023-03-06T22:31:22.622Z,100.00
2023-03-06T22:34:28.283Z,100.00
2023-03-06T22:37:32.900Z,100.00
2023-03-06T22:40:36.731Z,100.00
2023-03-06T22:43:40.850Z,100.00
2023-03-06T22:46:43.822Z,100.00
2023-03-06T22:49:47.011Z,100.00
2023-03-06T22:52:53.502Z,100.00
2023-03-06T22:56:01.122Z,100.00
2023-03-06T22:59:06.456Z,100.00
2023-03-06T23:02:09.545Z,100.00
2023-03-06T23:05:12.753Z,100.00
2023-03-06T23:08:18.500Z,100.00
2023-03-06T23:11:23.209Z,100.00
2023-03-06T23:14:26.785Z,100.00
2023-03-06T23:17:30.318Z,100.00
2023-03-06T23:20:36.714Z,100.00
2023-03-06T23:23:41.376Z,100.00
2023-03-06T23:26:44.237Z,100.00
2023-03-06T23:29:50.504Z,100.00
2023-03-06T23:32:53.392Z,100.00
2023-03-06T23:35:56.906Z,100.00
2023-03-06T23:39:01.316Z,100.00
2023-03-06T23:42:05.542Z,100.00
2023-03-06T23:45:08.741Z,100.00
2023-03-06T23:48:12.119Z,100.00
2023-03-06T23:51:16.875Z,100.00
2023-03-06T23:54:20.875Z,100.00
2023-03-06T23:57:28.068Z,100.00
